Terminal Aerodrome Forecast
Issued by NWS

Home | Current Version | Previous Version | Text Only | Print | Product List | Glossary On
Versions: 1 2 3 4 5 6 7 8 9 10 11 12 13 14 15
000
FTUS44 KEPZ 252300
TAFTCS
TAF
KTCS 252325Z 2600/2624 23020G30KT P6SM SCT060 SCT150
     FM260300 22011KT P6SM SCT070 SCT250
     FM260800 25009KT P6SM VCSH BKN050 BKN090
     FM261400 23011KT P6SM SCT080
     FM261800 27014G22KT P6SM SKC=

USA.gov is the U.S. government's official web portal to all federal, state and local government web resources and services.